LEVD

Valladolid Airport

Valladolid, Spain
TAF LEVD 211700Z 2118/2218 VRB02KT CAVOK TX27/2215Z TN13/2205Z PROB30 TEMPO 2212/2218 FEW040TCU
Issued Valid From Valid To
Jul-21 @ 17:00 UTC
(6 hours ago)
Jul-21 @ 18:00 UTC
(5 hours ago)
Jul-22 @ 18:00 UTC
(in 19 hours)
Jul-21 @ 18:00 to Jul-22 @ 18:00
TAF LEVD 211700Z 2118/2218 VRB02KT CAVOK TX27/2215Z TN13/2205Z
Wind Visibility Clouds
Variable at 2 knots 10,000+ meters
  • No significant clouds
Temporary  (Probability 30%) Jul-22 @ 12:00 to Jul-22 @ 18:00
PROB30 TEMPO 2212/2218 FEW040TCU
Clouds
  • Few at 4,000' AGL
TAF LEVD 211700Z 2118/2218 VRB02KT CAVOK TX27/2215Z TN13/2205Z PROB30 TEMPO 2212/2218 FEW040TCU
Issued Jul-21 @ 17:00 UTC
(6 hours ago)
Valid From Jul-21 @ 18:00 UTC
(5 hours ago)
Valid To Jul-22 @ 18:00 UTC
(in 19 hours)
Jul-21 @ 18:00 - Jul-22 @ 18:00
Wind Visibility
Variable at 2 knots 10,000+ meters
Clouds
  • No significant clouds
Probability 30% Temporary Jul-22 @ 12:00 - Jul-22 @ 18:00
Clouds
  • Few at 4,000' AGL